Time;durP1;ratioP1;P1;durP2;ratioP2;P2;SDS_P1;SDS_P2;PMS_P1;PMS_P2;Temp;Humidity;BMP_temperature;BMP_pressure;BME280_temperature;BME280_humidity;BME280_pressure;Samples;Min_cycle;Max_cycle;Signal;HPM_P1;HPM_P2
2024/02/21 00:02:21;;;;;;;19.30;2.92;;;25.20;71.50;;;;;;5092726;28;20517;-60
2024/02/21 00:04:47;;;;;;;11.45;2.83;;;25.20;70.60;;;;;;5105800;28;20068;-59
2024/02/21 00:07:14;;;;;;;10.10;2.60;;;25.20;71.90;;;;;;5101818;28;20090;-59
2024/02/21 00:09:40;;;;;;;15.18;3.22;;;25.30;71.20;;;;;;5096067;28;20069;-59
2024/02/21 00:12:07;;;;;;;16.00;2.80;;;25.30;70.60;;;;;;5093889;28;20099;-59
2024/02/21 00:14:34;;;;;;;20.17;3.13;;;25.30;70.80;;;;;;5101953;28;20570;-59
2024/02/21 00:17:00;;;;;;;19.33;3.22;;;25.20;70.30;;;;;;5098477;28;20096;-60
2024/02/21 00:19:27;;;;;;;21.65;3.75;;;25.20;71.40;;;;;;5105231;28;20133;-59
2024/02/21 00:21:53;;;;;;;21.40;3.55;;;25.10;70.40;;;;;;5103635;28;20065;-60
2024/02/21 00:24:19;;;;;;;22.65;5.53;;;24.90;71.90;;;;;;5100047;28;20110;-60
2024/02/21 00:26:46;;;;;;;18.27;5.32;;;24.80;73.40;;;;;;5097549;28;20084;-60
2024/02/21 00:29:12;;;;;;;24.27;4.55;;;24.80;72.90;;;;;;5101267;28;20068;-59
2024/02/21 00:31:39;;;;;;;18.08;3.15;;;24.90;73.20;;;;;;5102317;28;20086;-61
2024/02/21 00:34:05;;;;;;;19.50;3.28;;;24.80;73.30;;;;;;5101688;28;20097;-62
2024/02/21 00:36:32;;;;;;;16.30;3.40;;;24.80;73.50;;;;;;5089944;28;20103;-61
2024/02/21 00:38:59;;;;;;;14.93;3.33;;;24.70;73.00;;;;;;5096774;28;20126;-66
2024/02/21 00:41:25;;;;;;;17.17;3.28;;;24.90;74.60;;;;;;5098350;28;20064;-59
2024/02/21 00:43:52;;;;;;;19.95;3.45;;;25.20;72.40;;;;;;5098963;28;20068;-64
2024/02/21 00:46:18;;;;;;;15.15;3.67;;;25.50;73.90;;;;;;5090227;28;20602;-60
2024/02/21 00:48:45;;;;;;;21.45;3.70;;;25.20;72.20;;;;;;5105566;28;20090;-60
2024/02/21 00:51:11;;;;;;;42.83;3.35;;;24.90;72.20;;;;;;5100840;28;20114;-59
2024/02/21 00:53:38;;;;;;;28.38;2.75;;;23.70;80.30;;;;;;5088748;28;20068;-59
2024/02/21 00:56:06;;;;;;;16.60;2.10;;;22.90;86.00;;;;;;5094398;28;20069;-59
2024/02/21 00:58:32;;;;;;;10.63;1.80;;;22.50;89.10;;;;;;5089702;28;20087;-64
2024/02/21 01:01:01;;;;;;;21.55;1.98;;;22.10;91.10;;;;;;5088989;28;20108;-65
2024/02/21 01:03:28;;;;;;;15.75;2.60;;;21.70;92.10;;;;;;5105530;28;20076;-67
2024/02/21 01:05:54;;;;;;;19.10;3.42;;;21.40;92.90;;;;;;5090493;28;20061;-63
2024/02/21 01:08:21;;;;;;;17.98;1.70;;;21.20;93.30;;;;;;5088631;28;20073;-59
2024/02/21 01:10:47;;;;;;;18.60;1.80;;;21.00;93.80;;;;;;5092317;28;20149;-63
2024/02/21 01:13:14;;;;;;;11.98;2.10;;;20.90;94.00;;;;;;5090150;28;20586;-61
2024/02/21 01:15:40;;;;;;;7.10;1.05;;;20.80;94.30;;;;;;5103913;28;20143;-60
2024/02/21 01:18:07;;;;;;;10.10;1.30;;;20.70;94.50;;;;;;5098692;28;20187;-59
2024/02/21 01:20:33;;;;;;;7.00;1.30;;;20.70;94.80;;;;;;5099600;28;20072;-62
2024/02/21 01:23:00;;;;;;;4.50;1.30;;;20.60;95.10;;;;;;5099779;28;20137;-60
2024/02/21 01:25:26;;;;;;;5.95;1.60;;;20.50;95.50;;;;;;5098410;28;20080;-60
2024/02/21 01:27:53;;;;;;;7.00;1.65;;;20.60;95.90;;;;;;5098000;28;20080;-59
2024/02/21 01:30:19;;;;;;;14.38;1.73;;;20.50;96.20;;;;;;5095871;28;20068;-60
2024/02/21 01:32:46;;;;;;;6.95;1.20;;;20.60;96.10;;;;;;5106503;28;20075;-60
2024/02/21 01:35:13;;;;;;;9.10;1.38;;;20.60;95.70;;;;;;5101740;28;20072;-60
2024/02/21 01:37:39;;;;;;;5.97;1.63;;;20.50;96.10;;;;;;5101045;28;20475;-61
2024/02/21 01:40:06;;;;;;;16.13;2.78;;;20.50;96.20;;;;;;5092423;28;20068;-61
2024/02/21 01:42:33;;;;;;;12.90;1.73;;;20.50;96.30;;;;;;5092841;28;20069;-60
2024/02/21 01:44:59;;;;;;;7.75;1.50;;;20.40;96.60;;;;;;5099463;28;20065;-60
2024/02/21 01:47:26;;;;;;;7.35;1.58;;;20.40;96.60;;;;;;5101810;28;20099;-60
2024/02/21 01:49:52;;;;;;;4.30;1.27;;;20.30;96.80;;;;;;5102064;28;20159;-61
2024/02/21 01:52:19;;;;;;;8.30;1.73;;;20.40;96.80;;;;;;5091234;28;20068;-59
2024/02/21 01:54:47;;;;;;;6.20;1.40;;;20.20;97.20;;;;;;5096790;28;20098;-60
2024/02/21 01:57:14;;;;;;;8.63;1.45;;;20.20;97.60;;;;;;5102185;28;20115;-60
2024/02/21 01:59:41;;;;;;;13.82;1.60;;;20.10;98.20;;;;;;5098793;28;20064;-59
2024/02/21 02:02:07;;;;;;;11.15;2.45;;;20.10;98.80;;;;;;5105584;28;20110;-61
2024/02/21 02:04:35;;;;;;;5.00;1.65;;;20.10;99.20;;;;;;5099999;28;20065;-59
2024/02/21 02:07:05;;;;;;;12.45;2.35;;;20.00;99.60;;;;;;5100642;28;20061;-60
2024/02/21 02:09:31;;;;;;;12.88;1.95;;;20.00;99.90;;;;;;5103158;28;20588;-60
2024/02/21 02:11:58;;;;;;;6.68;1.95;;;19.90;99.90;;;;;;5101312;28;20083;-60
2024/02/21 02:14:25;;;;;;;8.25;1.98;;;19.80;99.90;;;;;;5099022;28;20173;-60
2024/02/21 02:16:52;;;;;;;10.20;1.73;;;19.70;99.90;;;;;;5098857;28;20213;-62
2024/02/21 02:19:18;;;;;;;6.38;1.55;;;19.70;99.90;;;;;;5089691;28;20072;-58
2024/02/21 02:21:56;;;;;;;15.80;3.33;;;19.70;99.90;;;;;;5100914;28;20069;-59
2024/02/21 02:24:27;;;;;;;11.18;2.15;;;19.70;99.90;;;;;;5104327;28;20072;-59
2024/02/21 02:26:54;;;;;;;10.88;1.65;;;19.70;99.90;;;;;;5096038;28;20096;-61
2024/02/21 02:29:20;;;;;;;12.35;1.80;;;19.60;99.90;;;;;;5093922;28;20069;-60
2024/02/21 02:31:47;;;;;;;9.32;1.50;;;19.60;99.90;;;;;;5105556;28;20163;-59
2024/02/21 02:34:13;;;;;;;8.60;1.70;;;19.60;99.90;;;;;;5099599;28;20522;-59
2024/02/21 02:36:40;;;;;;;10.02;1.80;;;19.60;99.90;;;;;;5091571;28;20080;-60
2024/02/21 02:39:06;;;;;;;7.10;1.77;;;19.50;99.90;;;;;;5092713;28;20072;-67
2024/02/21 02:41:36;;;;;;;10.85;1.58;;;20.50;99.70;;;;;;5098230;28;20147;-69
2024/02/21 02:44:03;;;;;;;8.88;1.60;;;21.00;98.80;;;;;;5111295;28;20463;-69
2024/02/21 02:46:29;;;;;;;8.70;1.65;;;22.10;96.60;;;;;;5111791;28;20608;-67
2024/02/21 02:48:56;;;;;;;6.25;1.30;;;21.50;96.90;;;;;;5093264;28;20068;-67
2024/02/21 02:51:22;;;;;;;10.02;1.40;;;21.90;96.40;;;;;;5105333;28;20068;-68
2024/02/21 02:53:49;;;;;;;6.93;1.50;;;21.80;96.10;;;;;;5106226;28;20072;-67
2024/02/21 02:56:16;;;;;;;9.45;1.30;;;21.60;96.30;;;;;;5108936;28;20151;-66
2024/02/21 02:58:46;;;;;;;8.10;1.45;;;21.60;96.50;;;;;;5093128;28;20069;-69
2024/02/21 03:01:13;;;;;;;8.65;1.58;;;21.60;96.50;;;;;;5090483;28;20112;-72
2024/02/21 03:03:39;;;;;;;5.80;1.45;;;21.90;95.90;;;;;;5093620;28;20499;-68
2024/02/21 03:06:06;;;;;;;10.93;1.50;;;21.70;95.90;;;;;;5101713;28;20068;-66
2024/02/21 03:08:34;;;;;;;7.38;1.50;;;21.80;96.20;;;;;;5097482;28;20113;-69
2024/02/21 03:11:00;;;;;;;11.30;1.52;;;21.80;95.70;;;;;;5094524;28;20154;-68
2024/02/21 03:13:27;;;;;;;6.15;1.75;;;21.30;96.60;;;;;;5098985;28;20080;-68
2024/02/21 03:15:53;;;;;;;10.52;1.42;;;21.40;97.00;;;;;;5095064;28;20114;-68
2024/02/21 03:18:20;;;;;;;12.65;1.50;;;21.30;96.70;;;;;;5095503;28;20595;-68
2024/02/21 03:20:46;;;;;;;13.23;1.80;;;21.20;96.90;;;;;;5101821;28;20072;-69
2024/02/21 03:23:13;;;;;;;8.70;1.58;;;20.90;97.50;;;;;;5111260;28;20082;-68
2024/02/21 03:25:39;;;;;;;5.22;1.20;;;20.90;97.80;;;;;;5106793;28;20065;-69
2024/02/21 03:28:06;;;;;;;6.15;1.30;;;21.10;97.20;;;;;;5112971;28;20160;-69
2024/02/21 03:30:33;;;;;;;6.63;1.20;;;21.00;97.60;;;;;;5112849;28;20065;-70
2024/02/21 03:33:01;;;;;;;5.13;1.58;;;21.30;97.50;;;;;;5110553;28;20064;-64
2024/02/21 03:35:27;;;;;;;6.18;1.38;;;21.40;96.80;;;;;;5105855;28;20426;-64
2024/02/21 03:37:54;;;;;;;4.55;1.10;;;21.00;96.70;;;;;;5104479;28;20091;-63
2024/02/21 03:40:20;;;;;;;6.63;1.17;;;20.80;97.10;;;;;;5109731;28;20573;-62
2024/02/21 03:42:47;;;;;;;10.48;1.48;;;20.50;97.70;;;;;;5098578;28;20065;-64
2024/02/21 03:45:14;;;;;;;17.70;1.70;;;20.40;98.00;;;;;;5092287;28;20064;-64
2024/02/21 03:47:40;;;;;;;8.40;1.65;;;20.30;98.50;;;;;;5091916;28;20091;-63
2024/02/21 03:50:07;;;;;;;7.55;1.73;;;20.40;98.50;;;;;;5097471;28;20073;-62
2024/02/21 03:52:34;;;;;;;10.70;1.33;;;20.50;98.80;;;;;;5092273;28;20198;-63
2024/02/21 03:55:00;;;;;;;11.73;1.52;;;20.50;98.20;;;;;;5090604;28;20072;-63
2024/02/21 03:57:26;;;;;;;4.43;1.40;;;20.30;98.60;;;;;;5090741;28;20111;-64
2024/02/21 03:59:53;;;;;;;6.00;1.42;;;20.10;98.70;;;;;;5090004;28;20072;-64
2024/02/21 04:02:19;;;;;;;8.90;1.10;;;20.10;99.00;;;;;;5090282;28;20141;-62
2024/02/21 04:04:47;;;;;;;7.50;1.45;;;20.00;99.20;;;;;;5091819;28;20219;-63
2024/02/21 04:07:15;;;;;;;5.28;1.45;;;20.10;99.30;;;;;;5091468;28;20433;-63
2024/02/21 04:09:41;;;;;;;13.18;1.42;;;20.10;99.20;;;;;;5091681;28;20064;-63
2024/02/21 04:12:09;;;;;;;6.53;1.27;;;20.00;99.50;;;;;;5091893;28;20147;-63
2024/02/21 04:14:36;;;;;;;4.75;1.10;;;20.20;99.60;;;;;;5103445;28;20064;-63
2024/02/21 04:17:03;;;;;;;4.50;0.95;;;20.20;99.30;;;;;;5097074;28;20104;-63
2024/02/21 04:19:31;;;;;;;6.07;1.25;;;20.20;99.10;;;;;;5100162;28;20103;-62
2024/02/21 04:21:57;;;;;;;7.15;0.95;;;20.10;99.40;;;;;;5107756;28;20417;-61
2024/02/21 04:24:23;;;;;;;4.40;1.00;;;20.00;99.50;;;;;;5098285;28;20116;-63
2024/02/21 04:26:50;;;;;;;4.97;1.00;;;19.80;99.90;;;;;;5114575;28;20083;-63
2024/02/21 04:29:17;;;;;;;4.38;1.10;;;19.80;99.90;;;;;;5101458;28;20103;-63
2024/02/21 04:31:43;;;;;;;10.05;1.17;;;19.70;99.90;;;;;;5097902;28;20072;-64
2024/02/21 04:34:10;;;;;;;6.28;1.05;;;19.90;99.90;;;;;;5099839;28;20071;-64
2024/02/21 04:36:36;;;;;;;2.88;1.00;;;19.70;99.90;;;;;;5093584;28;20075;-64
2024/02/21 04:39:03;;;;;;;4.25;1.00;;;19.60;99.90;;;;;;5100631;28;20106;-63
2024/02/21 04:41:29;;;;;;;4.50;0.80;;;19.50;99.90;;;;;;5096512;28;20073;-64
2024/02/21 04:43:56;;;;;;;4.10;0.75;;;19.50;99.90;;;;;;5097206;28;20077;-63
2024/02/21 04:46:22;;;;;;;3.72;0.90;;;19.60;99.90;;;;;;5100591;28;20076;-63
2024/02/21 04:48:49;;;;;;;4.05;1.10;;;19.40;99.90;;;;;;5103018;28;20069;-64
2024/02/21 04:51:15;;;;;;;5.22;1.02;;;19.40;99.90;;;;;;5100665;28;20068;-62
2024/02/21 04:53:42;;;;;;;5.15;1.00;;;19.40;99.90;;;;;;5104032;28;20077;-62
2024/02/21 04:56:08;;;;;;;4.03;1.20;;;19.30;99.90;;;;;;5098696;28;20534;-63
2024/02/21 04:58:39;;;;;;;2.95;1.50;;;19.40;99.90;;;;;;5101028;28;20092;-63
2024/02/21 05:01:06;;;;;;;4.05;1.40;;;19.30;99.90;;;;;;5099542;28;20195;-63
2024/02/21 05:03:32;;;;;;;3.92;1.00;;;19.10;99.90;;;;;;5098957;28;20203;-63
2024/02/21 05:06:00;;;;;;;2.35;1.15;;;19.20;99.90;;;;;;5105907;27;20068;-62
2024/02/21 05:08:27;;;;;;;7.05;1.13;;;19.00;99.90;;;;;;5101616;28;20060;-62
2024/02/21 05:10:54;;;;;;;2.70;1.00;;;19.10;99.90;;;;;;5097185;28;20069;-63
2024/02/21 05:13:20;;;;;;;4.50;0.90;;;19.00;99.90;;;;;;5102945;28;20067;-63
2024/02/21 05:15:47;;;;;;;5.30;0.90;;;19.00;99.90;;;;;;5106325;28;20091;-63
2024/02/21 05:18:13;;;;;;;3.05;1.23;;;19.10;99.90;;;;;;5102475;28;20100;-62
2024/02/21 05:20:40;;;;;;;3.00;0.88;;;19.10;99.90;;;;;;5098010;28;20151;-62
2024/02/21 05:23:06;;;;;;;2.00;0.70;;;19.10;99.90;;;;;;5102078;28;20076;-63
2024/02/21 05:25:33;;;;;;;8.60;0.95;;;19.20;99.90;;;;;;5102581;28;20071;-63
2024/02/21 05:28:02;;;;;;;4.65;0.90;;;19.10;99.90;;;;;;5097624;28;20173;-63
2024/02/21 05:30:28;;;;;;;9.18;1.27;;;19.20;99.90;;;;;;5099578;28;20530;-62
2024/02/21 05:32:55;;;;;;;6.15;0.98;;;19.10;99.90;;;;;;5102056;28;20079;-62
2024/02/21 05:35:29;;;;;;;3.47;0.88;;;19.10;99.90;;;;;;5100968;28;20520;-63
2024/02/21 05:37:55;;;;;;;9.95;1.25;;;19.10;99.90;;;;;;5105804;28;20093;-62
2024/02/21 05:40:22;;;;;;;2.13;0.80;;;19.20;99.90;;;;;;5094083;28;20194;-63
2024/02/21 05:42:48;;;;;;;3.67;0.90;;;19.10;99.90;;;;;;5102230;27;20148;-66
2024/02/21 05:45:15;;;;;;;3.78;1.10;;;19.20;99.90;;;;;;5100428;28;20072;-63
2024/02/21 05:47:42;;;;;;;1.40;0.90;;;19.00;99.90;;;;;;5091136;28;20076;-62
2024/02/21 05:50:09;;;;;;;10.05;1.58;;;19.00;99.90;;;;;;5102268;28;20076;-62
2024/02/21 05:52:35;;;;;;;7.57;1.98;;;19.00;99.90;;;;;;5102564;28;20065;-62
2024/02/21 05:55:03;;;;;;;11.02;3.75;;;19.00;99.90;;;;;;5102140;28;20521;-63
2024/02/21 05:57:29;;;;;;;7.07;2.90;;;19.00;99.90;;;;;;5097007;28;20485;-62
2024/02/21 05:59:55;;;;;;;8.15;2.10;;;19.10;99.90;;;;;;5096253;28;20068;-62
2024/02/21 06:02:22;;;;;;;7.47;1.80;;;18.90;99.90;;;;;;5106946;28;20072;-64
2024/02/21 06:04:49;;;;;;;3.78;1.70;;;18.90;99.90;;;;;;5102335;28;20514;-63
2024/02/21 06:07:15;;;;;;;9.07;1.88;;;18.80;99.90;;;;;;5100305;28;20084;-62
2024/02/21 06:09:42;;;;;;;3.92;1.70;;;18.80;99.90;;;;;;5099756;28;20073;-62
2024/02/21 06:12:09;;;;;;;9.00;1.70;;;18.80;99.90;;;;;;5102756;28;20076;-63
2024/02/21 06:14:36;;;;;;;1.95;1.45;;;18.70;99.90;;;;;;5100219;28;20581;-62
2024/02/21 06:17:03;;;;;;;7.65;2.20;;;18.70;99.90;;;;;;5102886;28;20108;-63
2024/02/21 06:19:29;;;;;;;6.45;2.65;;;18.60;99.90;;;;;;5110674;28;20064;-64
2024/02/21 06:21:56;;;;;;;11.85;2.00;;;18.60;99.90;;;;;;5098885;28;20064;-62
2024/02/21 06:24:22;;;;;;;4.75;1.80;;;18.70;99.90;;;;;;5105501;28;20147;-63
2024/02/21 06:26:49;;;;;;;6.40;1.80;;;18.70;99.90;;;;;;5103944;28;20068;-62
2024/02/21 06:29:15;;;;;;;5.97;1.63;;;18.60;99.90;;;;;;5097756;28;20113;-62
2024/02/21 06:31:42;;;;;;;10.05;1.73;;;18.60;99.90;;;;;;5102054;28;20075;-63
2024/02/21 06:34:08;;;;;;;9.18;6.07;;;18.60;99.90;;;;;;5092024;28;20159;-66
2024/02/21 06:36:35;;;;;;;32.90;29.30;;;18.60;99.90;;;;;;5103870;28;20072;-67
2024/02/21 06:39:01;;;;;;;16.75;13.35;;;18.50;99.90;;;;;;5100360;28;20080;-65
2024/02/21 06:41:28;;;;;;;5.38;1.27;;;18.50;99.90;;;;;;5099364;28;20171;-64
2024/02/21 06:43:54;;;;;;;4.82;0.90;;;18.50;99.90;;;;;;5099780;28;20068;-64
2024/02/21 06:46:33;;;;;;;2.58;0.90;;;18.50;99.90;;;;;;5099206;28;20098;-64
2024/02/21 06:49:00;;;;;;;1.85;0.88;;;18.60;99.90;;;;;;5095018;28;20068;-64
2024/02/21 06:51:27;;;;;;;5.55;1.00;;;18.60;99.90;;;;;;5095819;28;20072;-64
2024/02/21 06:53:54;;;;;;;5.55;0.90;;;18.60;99.90;;;;;;5101830;28;20155;-64
2024/02/21 06:56:26;;;;;;;1.10;0.70;;;18.50;99.90;;;;;;5102901;28;20067;-65
2024/02/21 06:58:53;;;;;;;6.90;0.95;;;18.50;99.90;;;;;;5096562;28;20076;-63
2024/02/21 07:01:19;;;;;;;4.45;0.80;;;18.50;99.90;;;;;;5096644;28;20147;-61
2024/02/21 07:03:46;;;;;;;2.10;0.88;;;18.50;99.90;;;;;;5099956;28;20398;-63
2024/02/21 07:06:13;;;;;;;27.98;16.52;;;18.50;99.90;;;;;;5098894;28;20131;-61
2024/02/21 07:08:39;;;;;;;4.15;1.35;;;18.30;99.90;;;;;;5099174;28;20064;-62
2024/02/21 07:11:06;;;;;;;7.43;1.17;;;18.30;99.90;;;;;;5095538;28;20522;-61
2024/02/21 07:13:33;;;;;;;4.18;1.20;;;18.20;99.90;;;;;;5096540;28;20068;-61
2024/02/21 07:15:59;;;;;;;4.28;0.80;;;18.30;99.90;;;;;;5100609;28;20529;-61
2024/02/21 07:18:26;;;;;;;2.53;0.90;;;18.20;99.90;;;;;;5096450;28;20112;-61
2024/02/21 07:20:53;;;;;;;6.07;0.90;;;18.10;99.90;;;;;;5100881;28;20458;-61
2024/02/21 07:23:20;;;;;;;5.95;0.90;;;18.10;99.90;;;;;;5101779;28;20076;-62
2024/02/21 07:25:46;;;;;;;5.82;0.90;;;18.00;99.90;;;;;;5101807;28;20060;-61
2024/02/21 07:28:14;;;;;;;2.83;0.73;;;17.90;99.90;;;;;;5105506;28;20095;-61
2024/02/21 07:30:40;;;;;;;2.85;0.98;;;17.90;99.90;;;;;;5102644;28;20064;-62
2024/02/21 07:33:07;;;;;;;5.15;1.30;;;17.90;99.90;;;;;;5101934;28;20103;-61
2024/02/21 07:35:33;;;;;;;3.90;0.80;;;17.80;99.90;;;;;;5102027;28;20099;-63
2024/02/21 07:38:00;;;;;;;1.75;0.90;;;17.80;99.90;;;;;;5097042;28;20131;-60
2024/02/21 07:40:26;;;;;;;3.88;1.45;;;17.60;99.90;;;;;;5098408;28;20097;-61
2024/02/21 07:42:53;;;;;;;5.32;1.20;;;17.50;99.90;;;;;;5100919;28;20109;-60
2024/02/21 07:45:23;;;;;;;7.53;1.42;;;17.40;99.90;;;;;;5096939;28;20155;-62
2024/02/21 07:47:50;;;;;;;8.65;1.45;;;17.40;99.90;;;;;;5097227;28;20076;-61
2024/02/21 07:50:17;;;;;;;8.40;1.00;;;17.40;99.90;;;;;;5093142;28;20083;-62
2024/02/21 07:52:44;;;;;;;4.55;1.10;;;17.40;99.90;;;;;;5103435;28;20064;-61
2024/02/21 07:55:10;;;;;;;3.42;1.30;;;17.30;99.90;;;;;;5102175;28;20075;-61
2024/02/21 07:57:37;;;;;;;7.20;1.02;;;17.30;99.90;;;;;;5090991;28;20192;-62
2024/02/21 08:00:04;;;;;;;4.35;0.95;;;17.30;99.90;;;;;;5099185;28;20092;-61
2024/02/21 08:02:31;;;;;;;5.72;1.10;;;17.30;99.90;;;;;;5094782;28;20120;-61
2024/02/21 08:04:57;;;;;;;5.13;1.38;;;17.20;99.90;;;;;;5099780;28;20088;-61
2024/02/21 08:07:24;;;;;;;8.52;1.48;;;17.20;99.90;;;;;;5096803;28;20566;-62
2024/02/21 08:09:50;;;;;;;4.00;1.50;;;17.20;99.90;;;;;;5095276;28;20065;-61
2024/02/21 08:12:17;;;;;;;5.32;1.38;;;17.20;99.90;;;;;;5096431;28;20077;-61
2024/02/21 08:14:43;;;;;;;2.90;1.42;;;17.20;99.90;;;;;;5099426;28;20575;-62
2024/02/21 08:17:10;;;;;;;6.55;1.50;;;17.20;99.90;;;;;;5102963;28;20153;-61
2024/02/21 08:19:37;;;;;;;8.40;1.42;;;17.10;99.90;;;;;;5098364;28;20064;-60
2024/02/21 08:22:03;;;;;;;3.35;1.17;;;17.10;99.90;;;;;;5097915;28;20071;-60
2024/02/21 08:24:30;;;;;;;3.83;1.17;;;17.00;99.90;;;;;;5100693;28;20088;-60
2024/02/21 08:26:56;;;;;;;5.22;1.15;;;17.00;99.90;;;;;;5103328;28;20068;-61
2024/02/21 08:29:22;;;;;;;5.30;1.20;;;17.00;99.90;;;;;;5099718;28;20064;-61
2024/02/21 08:31:49;;;;;;;4.03;0.98;;;16.90;99.90;;;;;;5097640;28;20418;-62
2024/02/21 08:34:15;;;;;;;3.65;1.23;;;16.80;99.90;;;;;;5096276;28;20065;-61
2024/02/21 08:36:43;;;;;;;5.07;1.30;;;16.70;99.90;;;;;;5099144;28;20113;-61
2024/02/21 08:39:09;;;;;;;3.13;1.13;;;16.70;99.90;;;;;;5105310;28;20191;-61
2024/02/21 08:41:36;;;;;;;3.38;1.00;;;16.70;99.90;;;;;;5099114;28;20529;-61
2024/02/21 08:44:03;;;;;;;3.63;1.17;;;16.70;99.90;;;;;;5095101;28;20084;-62
2024/02/21 08:46:29;;;;;;;2.80;1.10;;;16.70;99.90;;;;;;5098244;28;20064;-61
2024/02/21 08:48:56;;;;;;;1.63;1.05;;;16.60;99.90;;;;;;5099291;28;20075;-62
2024/02/21 08:51:22;;;;;;;5.82;1.35;;;16.70;99.90;;;;;;5102711;28;20094;-61
2024/02/21 08:53:49;;;;;;;2.13;1.10;;;16.70;99.90;;;;;;5104892;28;20092;-61
2024/02/21 08:56:17;;;;;;;7.50;1.33;;;16.60;99.90;;;;;;5096684;28;20064;-61
2024/02/21 08:58:44;;;;;;;3.00;1.08;;;16.60;99.90;;;;;;5093550;28;20144;-62
2024/02/21 09:01:10;;;;;;;3.47;1.42;;;16.60;99.90;;;;;;5093893;28;20108;-62
2024/02/21 09:03:38;;;;;;;4.32;1.10;;;16.50;99.90;;;;;;5098394;28;20068;-61
2024/02/21 09:06:09;;;;;;;5.70;1.20;;;16.40;99.90;;;;;;5090772;28;20601;-62
2024/02/21 09:08:36;;;;;;;8.63;1.40;;;16.30;99.90;;;;;;5093925;28;20104;-61
2024/02/21 09:11:03;;;;;;;5.38;1.08;;;16.40;99.90;;;;;;5093385;28;20072;-61
2024/02/21 09:13:30;;;;;;;5.25;1.20;;;16.30;99.90;;;;;;5097368;28;20081;-61
2024/02/21 09:15:56;;;;;;;1.88;0.95;;;16.30;99.90;;;;;;5098237;28;20433;-61
2024/02/21 09:18:23;;;;;;;2.20;0.90;;;16.30;99.90;;;;;;5099217;28;20092;-62
2024/02/21 09:20:49;;;;;;;4.82;1.10;;;16.30;99.90;;;;;;5096687;28;20096;-61
2024/02/21 09:23:16;;;;;;;4.07;1.17;;;16.20;99.90;;;;;;5100891;28;20064;-61
2024/02/21 09:25:43;;;;;;;6.47;1.02;;;16.20;99.90;;;;;;5101744;28;20064;-62
2024/02/21 09:28:10;;;;;;;3.50;0.98;;;16.20;99.90;;;;;;5104482;28;20123;-61
2024/02/21 09:30:37;;;;;;;3.28;0.95;;;16.10;99.90;;;;;;5097770;28;20065;-60
2024/02/21 09:33:05;;;;;;;1.55;1.10;;;16.00;99.90;;;;;;5103179;28;20064;-62
2024/02/21 09:35:33;;;;;;;6.38;1.17;;;16.00;99.90;;;;;;5102131;28;20366;-61
2024/02/21 09:38:00;;;;;;;4.60;1.10;;;16.00;99.90;;;;;;5094272;28;20608;-61
2024/02/21 09:40:26;;;;;;;2.78;0.98;;;16.00;99.90;;;;;;5105880;28;20064;-63
2024/02/21 09:43:06;;;;;;;6.57;1.20;;;15.90;99.90;;;;;;5106527;28;20071;-60
2024/02/21 09:45:34;;;;;;;2.70;1.13;;;15.90;99.90;;;;;;5105137;28;20128;-60
2024/02/21 09:48:10;;;;;;;3.90;1.30;;;15.90;99.90;;;;;;5099011;28;20064;-60
2024/02/21 09:50:43;;;;;;;1.27;1.00;;;15.80;99.90;;;;;;5105653;28;20070;-61
2024/02/21 09:53:13;;;;;;;6.75;1.27;;;15.70;99.90;;;;;;5099258;28;20402;-60
2024/02/21 09:55:41;;;;;;;2.88;1.60;;;15.70;99.90;;;;;;5106017;28;20075;-60
2024/02/21 09:58:11;;;;;;;7.18;1.52;;;15.90;99.90;;;;;;5103333;28;20191;-61
2024/02/21 10:00:39;;;;;;;2.45;1.50;;;15.90;99.90;;;;;;5104175;28;20117;-61
2024/02/21 10:03:08;;;;;;;2.97;1.33;;;15.90;99.90;;;;;;5106252;28;20115;-62
2024/02/21 10:05:35;;;;;;;2.15;1.02;;;15.90;99.90;;;;;;5101498;28;20103;-63
2024/02/21 10:08:03;;;;;;;2.25;1.42;;;15.80;99.90;;;;;;5104197;28;20079;-61
2024/02/21 10:10:31;;;;;;;4.03;1.13;;;15.80;99.90;;;;;;5099876;28;20600;-61
2024/02/21 10:12:57;;;;;;;2.85;1.10;;;15.80;99.90;;;;;;5108114;28;20070;-61
2024/02/21 10:15:25;;;;;;;1.95;1.00;;;15.80;99.90;;;;;;5099217;28;20083;-61
2024/02/21 10:18:03;;;;;;;3.95;1.10;;;15.80;99.90;;;;;;5103851;28;20096;-62
2024/02/21 10:20:30;;;;;;;2.97;1.30;;;15.70;99.90;;;;;;5102640;28;20091;-61
2024/02/21 10:23:09;;;;;;;4.32;1.25;;;15.60;99.90;;;;;;5099028;28;20108;-62
2024/02/21 10:25:43;;;;;;;3.00;1.10;;;15.60;99.90;;;;;;5104385;28;20094;-61
2024/02/21 10:28:12;;;;;;;3.35;1.20;;;15.60;99.90;;;;;;5113385;28;20068;-61
2024/02/21 10:30:38;;;;;;;2.15;1.10;;;15.60;99.90;;;;;;5097210;28;20064;-60
2024/02/21 10:33:06;;;;;;;3.08;1.25;;;15.60;99.90;;;;;;5102109;28;20068;-61
2024/02/21 10:35:33;;;;;;;7.43;1.48;;;15.60;99.90;;;;;;5103930;28;20184;-60
2024/02/21 10:38:00;;;;;;;3.53;1.40;;;15.70;99.90;;;;;;5100264;28;20174;-60
2024/02/21 10:40:31;;;;;;;2.85;1.45;;;15.60;99.90;;;;;;5094105;28;20109;-61
2024/02/21 10:43:00;;;;;;;9.88;1.58;;;15.60;99.90;;;;;;5097810;28;20105;-60
2024/02/21 10:45:31;;;;;;;7.10;1.88;;;15.60;99.90;;;;;;5100967;28;20072;-61
2024/02/21 10:48:15;;;;;;;5.95;1.55;;;15.60;99.90;;;;;;5107158;28;20075;-60
2024/02/21 10:51:22;;;;;;;4.28;1.85;;;15.50;99.90;;;;;;5100399;28;20067;-61
2024/02/21 10:54:01;;;;;;;5.03;2.30;;;15.60;99.90;;;;;;5092470;28;20417;-60
2024/02/21 10:56:31;;;;;;;4.13;2.15;;;15.60;99.90;;;;;;5091756;28;20531;-62
2024/02/21 10:59:02;;;;;;;7.35;1.92;;;15.50;99.90;;;;;;5095013;28;20142;-61
2024/02/21 11:01:32;;;;;;;7.20;1.95;;;15.40;99.90;;;;;;5098703;28;20147;-62
2024/02/21 11:04:02;;;;;;;5.68;2.15;;;15.40;99.90;;;;;;5102691;28;20111;-61
2024/02/21 11:06:29;;;;;;;4.13;1.77;;;15.40;99.90;;;;;;5107408;28;20548;-61
2024/02/21 11:09:07;;;;;;;6.25;2.00;;;15.40;99.90;;;;;;5100663;28;20517;-60
2024/02/21 11:11:39;;;;;;;6.25;1.95;;;15.30;99.90;;;;;;5103159;28;20167;-60
2024/02/21 11:14:11;;;;;;;10.15;1.75;;;15.30;99.90;;;;;;5098491;28;20437;-61
2024/02/21 11:16:40;;;;;;;4.90;1.50;;;15.40;99.90;;;;;;5105755;28;20100;-61
2024/02/21 11:19:19;;;;;;;3.03;1.73;;;15.30;99.90;;;;;;5103052;28;20068;-60
2024/02/21 11:21:45;;;;;;;2.78;2.08;;;15.30;99.90;;;;;;5100440;28;20171;-60
2024/02/21 11:24:12;;;;;;;5.55;1.50;;;15.20;99.90;;;;;;5095518;28;20072;-62
2024/02/21 11:26:41;;;;;;;4.03;1.73;;;15.20;99.90;;;;;;5102336;28;20143;-61
2024/02/21 11:29:10;;;;;;;2.95;1.63;;;15.20;99.90;;;;;;5101827;28;20108;-60
2024/02/21 11:31:47;;;;;;;6.05;2.10;;;15.20;99.90;;;;;;5103211;28;20068;-60
2024/02/21 11:34:17;;;;;;;7.35;1.83;;;15.20;99.90;;;;;;5100909;28;21192;-61
2024/02/21 11:36:51;;;;;;;7.45;1.90;;;15.10;99.90;;;;;;5105976;28;20155;-60
2024/02/21 11:39:22;;;;;;;4.72;1.73;;;15.30;99.90;;;;;;5102956;28;20082;-60
2024/02/21 11:42:09;;;;;;;5.93;1.92;;;15.20;99.90;;;;;;5098307;28;20068;-62
2024/02/21 11:44:42;;;;;;;8.50;2.22;;;15.10;99.90;;;;;;5101537;28;20113;-62
2024/02/21 11:47:09;;;;;;;8.07;3.20;;;14.90;99.90;;;;;;5104748;28;20078;-61
2024/02/21 11:49:43;;;;;;;15.57;3.80;;;14.90;99.90;;;;;;5094748;28;20060;-61
2024/02/21 11:52:09;;;;;;;11.30;3.50;;;14.80;99.90;;;;;;5092160;28;20076;-62
2024/02/21 11:54:36;;;;;;;9.45;3.90;;;14.70;99.90;;;;;;5101323;28;20065;-62
2024/02/21 11:57:04;;;;;;;9.45;4.00;;;14.70;99.90;;;;;;5103833;28;20102;-61
2024/02/21 11:59:31;;;;;;;9.20;4.32;;;14.70;99.90;;;;;;5092600;28;20069;-62
2024/02/21 12:02:05;;;;;;;9.57;4.15;;;14.70;99.90;;;;;;5097889;28;21422;-62
2024/02/21 12:04:31;;;;;;;9.80;4.32;;;14.70;99.90;;;;;;5096793;28;20069;-61
2024/02/21 12:06:59;;;;;;;9.32;4.20;;;14.80;99.90;;;;;;5099760;28;20079;-61
2024/02/21 12:09:26;;;;;;;15.82;4.40;;;14.90;99.90;;;;;;5097816;28;20072;-61
2024/02/21 12:12:04;;;;;;;9.57;4.05;;;15.00;99.90;;;;;;5095569;28;20073;-61
2024/02/21 12:14:35;;;;;;;11.18;4.72;;;15.10;99.90;;;;;;5102107;28;20092;-61
2024/02/21 12:17:05;;;;;;;10.68;4.13;;;15.10;99.90;;;;;;5099668;28;20499;-61
2024/02/21 12:19:34;;;;;;;11.63;4.80;;;15.20;99.90;;;;;;5104034;28;20076;-61
2024/02/21 12:22:01;;;;;;;9.60;5.03;;;15.30;99.90;;;;;;5107103;28;20452;-61
2024/02/21 12:24:29;;;;;;;10.80;4.95;;;15.30;99.90;;;;;;5094573;28;20085;-61
2024/02/21 12:26:58;;;;;;;10.88;4.82;;;15.30;99.90;;;;;;5098432;28;20076;-60
2024/02/21 12:29:25;;;;;;;16.27;6.53;;;15.30;99.90;;;;;;5099736;28;20064;-60
2024/02/21 12:31:53;;;;;;;15.13;7.13;;;15.30;99.90;;;;;;5099314;28;20103;-60
2024/02/21 12:34:22;;;;;;;21.55;6.75;;;15.10;99.90;;;;;;5099032;28;20117;-61
2024/02/21 12:36:48;;;;;;;19.58;6.88;;;15.10;99.90;;;;;;5101098;28;20096;-61
2024/02/21 12:39:15;;;;;;;15.82;7.13;;;15.10;99.90;;;;;;5095099;28;20076;-60
2024/02/21 12:41:44;;;;;;;15.75;7.70;;;15.20;99.90;;;;;;5103130;28;20099;-60
2024/02/21 12:44:11;;;;;;;21.85;8.70;;;15.30;99.90;;;;;;5103136;28;20133;-61
2024/02/21 12:46:39;;;;;;;19.42;7.85;;;15.30;99.90;;;;;;5103522;28;20403;-60